sensor_id;sensor_type;location;lat;lon;timestamp;P1;durP1;ratioP1;P2;durP2;ratioP2
46755;SDS011;32506;52.826;-1.192;2024-03-02T00:01:53;5.60;;;0.93;;
46755;SDS011;32506;52.826;-1.192;2024-03-02T00:04:19;5.20;;;1.13;;
46755;SDS011;32506;52.826;-1.192;2024-03-02T00:06:44;4.05;;;0.90;;
46755;SDS011;32506;52.826;-1.192;2024-03-02T00:09:10;4.63;;;1.10;;
46755;SDS011;32506;52.826;-1.192;2024-03-02T00:11:37;7.28;;;1.50;;
46755;SDS011;32506;52.826;-1.192;2024-03-02T00:14:03;4.13;;;0.90;;
46755;SDS011;32506;52.826;-1.192;2024-03-02T00:16:32;3.08;;;1.00;;
46755;SDS011;32506;52.826;-1.192;2024-03-02T00:19:02;3.33;;;1.10;;
46755;SDS011;32506;52.826;-1.192;2024-03-02T00:21:29;2.13;;;0.70;;
46755;SDS011;32506;52.826;-1.192;2024-03-02T00:23:55;3.63;;;0.93;;
46755;SDS011;32506;52.826;-1.192;2024-03-02T00:26:21;5.43;;;1.30;;
46755;SDS011;32506;52.826;-1.192;2024-03-02T00:28:47;7.97;;;1.25;;
46755;SDS011;32506;52.826;-1.192;2024-03-02T00:31:19;4.43;;;1.15;;
46755;SDS011;32506;52.826;-1.192;2024-03-02T00:33:46;2.42;;;0.90;;
46755;SDS011;32506;52.826;-1.192;2024-03-02T00:36:17;3.28;;;0.80;;
46755;SDS011;32506;52.826;-1.192;2024-03-02T00:38:52;2.40;;;0.98;;
46755;SDS011;32506;52.826;-1.192;2024-03-02T00:41:29;4.55;;;1.25;;
46755;SDS011;32506;52.826;-1.192;2024-03-02T00:43:59;3.80;;;1.20;;
46755;SDS011;32506;52.826;-1.192;2024-03-02T00:46:30;3.60;;;1.30;;
46755;SDS011;32506;52.826;-1.192;2024-03-02T00:48:59;2.88;;;1.20;;
46755;SDS011;32506;52.826;-1.192;2024-03-02T00:51:36;3.70;;;1.33;;
46755;SDS011;32506;52.826;-1.192;2024-03-02T00:54:04;3.97;;;1.30;;
46755;SDS011;32506;52.826;-1.192;2024-03-02T00:56:30;3.08;;;1.15;;
46755;SDS011;32506;52.826;-1.192;2024-03-02T00:58:57;5.20;;;1.42;;
46755;SDS011;32506;52.826;-1.192;2024-03-02T01:01:22;2.55;;;1.13;;
46755;SDS011;32506;52.826;-1.192;2024-03-02T01:03:48;4.35;;;1.23;;
46755;SDS011;32506;52.826;-1.192;2024-03-02T01:06:14;5.85;;;1.30;;
46755;SDS011;32506;52.826;-1.192;2024-03-02T01:08:40;4.72;;;1.40;;
46755;SDS011;32506;52.826;-1.192;2024-03-02T01:11:06;8.60;;;1.10;;
46755;SDS011;32506;52.826;-1.192;2024-03-02T01:13:32;6.18;;;1.98;;
46755;SDS011;32506;52.826;-1.192;2024-03-02T01:15:57;3.30;;;1.25;;
46755;SDS011;32506;52.826;-1.192;2024-03-02T01:18:23;5.32;;;1.20;;
46755;SDS011;32506;52.826;-1.192;2024-03-02T01:20:49;5.38;;;1.48;;
46755;SDS011;32506;52.826;-1.192;2024-03-02T01:23:17;3.45;;;1.20;;
46755;SDS011;32506;52.826;-1.192;2024-03-02T01:25:46;3.35;;;1.30;;
46755;SDS011;32506;52.826;-1.192;2024-03-02T01:28:12;6.15;;;1.63;;
46755;SDS011;32506;52.826;-1.192;2024-03-02T01:30:38;2.30;;;1.10;;
46755;SDS011;32506;52.826;-1.192;2024-03-02T01:33:03;4.60;;;1.40;;
46755;SDS011;32506;52.826;-1.192;2024-03-02T01:35:30;2.65;;;1.40;;
46755;SDS011;32506;52.826;-1.192;2024-03-02T01:37:56;4.85;;;1.80;;
46755;SDS011;32506;52.826;-1.192;2024-03-02T01:40:22;7.97;;;1.95;;
46755;SDS011;32506;52.826;-1.192;2024-03-02T01:42:51;5.20;;;2.08;;
46755;SDS011;32506;52.826;-1.192;2024-03-02T01:45:17;4.80;;;1.80;;
46755;SDS011;32506;52.826;-1.192;2024-03-02T01:47:42;5.57;;;2.42;;
46755;SDS011;32506;52.826;-1.192;2024-03-02T01:50:08;6.72;;;1.90;;
46755;SDS011;32506;52.826;-1.192;2024-03-02T01:52:36;3.85;;;1.70;;
46755;SDS011;32506;52.826;-1.192;2024-03-02T01:55:02;6.35;;;2.00;;
46755;SDS011;32506;52.826;-1.192;2024-03-02T01:57:28;6.22;;;2.70;;
46755;SDS011;32506;52.826;-1.192;2024-03-02T01:59:54;5.97;;;2.20;;
46755;SDS011;32506;52.826;-1.192;2024-03-02T02:02:20;7.30;;;2.38;;
46755;SDS011;32506;52.826;-1.192;2024-03-02T02:04:46;7.25;;;2.67;;
46755;SDS011;32506;52.826;-1.192;2024-03-02T02:07:12;5.03;;;2.10;;
46755;SDS011;32506;52.826;-1.192;2024-03-02T02:09:39;5.45;;;2.53;;
46755;SDS011;32506;52.826;-1.192;2024-03-02T02:12:07;5.47;;;2.38;;
46755;SDS011;32506;52.826;-1.192;2024-03-02T02:14:34;5.68;;;2.40;;
46755;SDS011;32506;52.826;-1.192;2024-03-02T02:16:59;7.47;;;2.88;;
46755;SDS011;32506;52.826;-1.192;2024-03-02T02:19:25;5.38;;;2.40;;
46755;SDS011;32506;52.826;-1.192;2024-03-02T02:21:50;6.28;;;2.33;;
46755;SDS011;32506;52.826;-1.192;2024-03-02T02:24:16;6.85;;;2.38;;
46755;SDS011;32506;52.826;-1.192;2024-03-02T02:26:41;3.65;;;2.40;;
46755;SDS011;32506;52.826;-1.192;2024-03-02T02:29:07;4.05;;;1.90;;
46755;SDS011;32506;52.826;-1.192;2024-03-02T02:31:39;4.95;;;2.22;;
46755;SDS011;32506;52.826;-1.192;2024-03-02T02:34:05;7.25;;;2.47;;
46755;SDS011;32506;52.826;-1.192;2024-03-02T02:36:31;6.95;;;3.45;;
46755;SDS011;32506;52.826;-1.192;2024-03-02T02:38:57;5.65;;;2.55;;
46755;SDS011;32506;52.826;-1.192;2024-03-02T02:41:25;6.63;;;2.80;;
46755;SDS011;32506;52.826;-1.192;2024-03-02T02:43:50;5.75;;;3.15;;
46755;SDS011;32506;52.826;-1.192;2024-03-02T02:46:16;6.22;;;2.70;;
46755;SDS011;32506;52.826;-1.192;2024-03-02T02:48:41;5.53;;;2.85;;
46755;SDS011;32506;52.826;-1.192;2024-03-02T02:51:06;5.30;;;2.38;;
46755;SDS011;32506;52.826;-1.192;2024-03-02T02:53:32;6.65;;;2.70;;
46755;SDS011;32506;52.826;-1.192;2024-03-02T02:55:57;7.03;;;3.33;;
46755;SDS011;32506;52.826;-1.192;2024-03-02T02:58:23;6.43;;;3.47;;
46755;SDS011;32506;52.826;-1.192;2024-03-02T03:00:48;7.82;;;3.30;;
46755;SDS011;32506;52.826;-1.192;2024-03-02T03:03:14;7.20;;;3.35;;
46755;SDS011;32506;52.826;-1.192;2024-03-02T03:05:39;5.97;;;3.60;;
46755;SDS011;32506;52.826;-1.192;2024-03-02T03:08:05;6.68;;;3.58;;
46755;SDS011;32506;52.826;-1.192;2024-03-02T03:10:30;5.85;;;3.40;;
46755;SDS011;32506;52.826;-1.192;2024-03-02T03:12:56;8.80;;;4.18;;
46755;SDS011;32506;52.826;-1.192;2024-03-02T03:15:21;7.75;;;3.50;;
46755;SDS011;32506;52.826;-1.192;2024-03-02T03:17:47;6.63;;;3.50;;
46755;SDS011;32506;52.826;-1.192;2024-03-02T03:20:12;5.90;;;3.67;;
46755;SDS011;32506;52.826;-1.192;2024-03-02T03:22:39;6.38;;;3.38;;
46755;SDS011;32506;52.826;-1.192;2024-03-02T03:25:04;7.13;;;3.70;;
46755;SDS011;32506;52.826;-1.192;2024-03-02T03:27:30;6.95;;;3.60;;
46755;SDS011;32506;52.826;-1.192;2024-03-02T03:29:56;7.22;;;3.70;;
46755;SDS011;32506;52.826;-1.192;2024-03-02T03:32:21;7.68;;;4.25;;
46755;SDS011;32506;52.826;-1.192;2024-03-02T03:34:47;5.32;;;3.45;;
46755;SDS011;32506;52.826;-1.192;2024-03-02T03:37:13;8.23;;;4.13;;
46755;SDS011;32506;52.826;-1.192;2024-03-02T03:39:39;9.25;;;3.45;;
46755;SDS011;32506;52.826;-1.192;2024-03-02T03:42:04;7.57;;;3.92;;
46755;SDS011;32506;52.826;-1.192;2024-03-02T03:44:30;6.30;;;3.85;;
46755;SDS011;32506;52.826;-1.192;2024-03-02T03:46:55;8.52;;;4.10;;
46755;SDS011;32506;52.826;-1.192;2024-03-02T03:49:21;8.35;;;4.57;;
46755;SDS011;32506;52.826;-1.192;2024-03-02T03:51:46;7.22;;;4.18;;
46755;SDS011;32506;52.826;-1.192;2024-03-02T03:54:12;7.18;;;4.05;;
46755;SDS011;32506;52.826;-1.192;2024-03-02T03:56:37;7.18;;;4.35;;
46755;SDS011;32506;52.826;-1.192;2024-03-02T03:59:03;6.10;;;3.80;;
46755;SDS011;32506;52.826;-1.192;2024-03-02T04:01:29;9.15;;;4.03;;
46755;SDS011;32506;52.826;-1.192;2024-03-02T04:03:56;6.03;;;3.80;;
46755;SDS011;32506;52.826;-1.192;2024-03-02T04:06:22;5.40;;;3.35;;
46755;SDS011;32506;52.826;-1.192;2024-03-02T04:08:48;8.43;;;4.75;;
46755;SDS011;32506;52.826;-1.192;2024-03-02T04:11:13;6.07;;;3.42;;
46755;SDS011;32506;52.826;-1.192;2024-03-02T04:13:38;8.55;;;4.05;;
46755;SDS011;32506;52.826;-1.192;2024-03-02T04:16:04;7.85;;;3.72;;
46755;SDS011;32506;52.826;-1.192;2024-03-02T04:18:30;6.47;;;3.50;;
46755;SDS011;32506;52.826;-1.192;2024-03-02T04:20:57;6.40;;;3.67;;
46755;SDS011;32506;52.826;-1.192;2024-03-02T04:23:24;5.68;;;3.42;;
46755;SDS011;32506;52.826;-1.192;2024-03-02T04:25:50;7.63;;;3.40;;
46755;SDS011;32506;52.826;-1.192;2024-03-02T04:28:15;5.75;;;3.70;;
46755;SDS011;32506;52.826;-1.192;2024-03-02T04:30:41;7.70;;;3.90;;
46755;SDS011;32506;52.826;-1.192;2024-03-02T04:33:07;7.28;;;3.65;;
46755;SDS011;32506;52.826;-1.192;2024-03-02T04:35:35;7.10;;;4.03;;
46755;SDS011;32506;52.826;-1.192;2024-03-02T04:38:01;6.57;;;4.20;;
46755;SDS011;32506;52.826;-1.192;2024-03-02T04:40:26;6.55;;;4.07;;
46755;SDS011;32506;52.826;-1.192;2024-03-02T04:42:51;5.90;;;4.00;;
46755;SDS011;32506;52.826;-1.192;2024-03-02T04:45:17;10.18;;;3.80;;
46755;SDS011;32506;52.826;-1.192;2024-03-02T04:47:42;6.55;;;3.50;;
46755;SDS011;32506;52.826;-1.192;2024-03-02T04:50:08;6.00;;;3.70;;
46755;SDS011;32506;52.826;-1.192;2024-03-02T04:52:33;7.28;;;4.63;;
46755;SDS011;32506;52.826;-1.192;2024-03-02T04:54:59;9.38;;;3.90;;
46755;SDS011;32506;52.826;-1.192;2024-03-02T05:01:17;8.13;;;3.72;;
46755;SDS011;32506;52.826;-1.192;2024-03-02T05:03:42;6.68;;;3.58;;
46755;SDS011;32506;52.826;-1.192;2024-03-02T05:06:08;8.48;;;3.88;;
46755;SDS011;32506;52.826;-1.192;2024-03-02T05:08:33;7.53;;;3.80;;
46755;SDS011;32506;52.826;-1.192;2024-03-02T05:10:59;6.45;;;4.20;;
46755;SDS011;32506;52.826;-1.192;2024-03-02T05:13:44;8.13;;;3.70;;
46755;SDS011;32506;52.826;-1.192;2024-03-02T05:16:10;7.85;;;4.47;;
46755;SDS011;32506;52.826;-1.192;2024-03-02T05:18:36;8.68;;;4.65;;
46755;SDS011;32506;52.826;-1.192;2024-03-02T05:21:03;5.70;;;3.83;;
46755;SDS011;32506;52.826;-1.192;2024-03-02T05:23:28;7.32;;;4.53;;
46755;SDS011;32506;52.826;-1.192;2024-03-02T05:25:54;7.75;;;4.78;;
46755;SDS011;32506;52.826;-1.192;2024-03-02T05:28:19;9.95;;;4.78;;
46755;SDS011;32506;52.826;-1.192;2024-03-02T05:30:44;7.45;;;4.40;;
46755;SDS011;32506;52.826;-1.192;2024-03-02T05:33:10;6.80;;;4.25;;
46755;SDS011;32506;52.826;-1.192;2024-03-02T05:35:35;8.63;;;4.95;;
46755;SDS011;32506;52.826;-1.192;2024-03-02T05:38:01;7.70;;;4.90;;
46755;SDS011;32506;52.826;-1.192;2024-03-02T05:40:26;9.25;;;4.72;;
46755;SDS011;32506;52.826;-1.192;2024-03-02T05:42:51;7.35;;;4.57;;
46755;SDS011;32506;52.826;-1.192;2024-03-02T05:45:17;8.57;;;4.80;;
46755;SDS011;32506;52.826;-1.192;2024-03-02T05:47:43;6.40;;;4.18;;
46755;SDS011;32506;52.826;-1.192;2024-03-02T05:50:08;8.85;;;4.70;;
46755;SDS011;32506;52.826;-1.192;2024-03-02T05:52:34;7.47;;;4.22;;
46755;SDS011;32506;52.826;-1.192;2024-03-02T05:54:59;9.60;;;4.43;;
46755;SDS011;32506;52.826;-1.192;2024-03-02T05:57:25;6.07;;;3.78;;
46755;SDS011;32506;52.826;-1.192;2024-03-02T06:00:08;6.03;;;3.50;;
46755;SDS011;32506;52.826;-1.192;2024-03-02T06:02:34;6.78;;;3.72;;
46755;SDS011;32506;52.826;-1.192;2024-03-02T06:05:02;6.60;;;4.30;;
46755;SDS011;32506;52.826;-1.192;2024-03-02T06:07:29;5.57;;;4.00;;
46755;SDS011;32506;52.826;-1.192;2024-03-02T06:09:55;7.93;;;4.00;;
46755;SDS011;32506;52.826;-1.192;2024-03-02T06:12:20;7.15;;;3.90;;
46755;SDS011;32506;52.826;-1.192;2024-03-02T06:14:46;9.35;;;4.07;;
46755;SDS011;32506;52.826;-1.192;2024-03-02T06:17:11;5.88;;;3.15;;
46755;SDS011;32506;52.826;-1.192;2024-03-02T06:19:37;5.80;;;3.17;;
46755;SDS011;32506;52.826;-1.192;2024-03-02T06:22:02;5.70;;;3.20;;
46755;SDS011;32506;52.826;-1.192;2024-03-02T06:24:28;7.70;;;2.75;;
46755;SDS011;32506;52.826;-1.192;2024-03-02T06:26:54;5.70;;;3.45;;
46755;SDS011;32506;52.826;-1.192;2024-03-02T06:29:19;7.18;;;3.60;;
46755;SDS011;32506;52.826;-1.192;2024-03-02T06:31:45;4.53;;;2.42;;
46755;SDS011;32506;52.826;-1.192;2024-03-02T06:34:10;6.18;;;2.72;;
46755;SDS011;32506;52.826;-1.192;2024-03-02T06:36:36;6.10;;;3.05;;
46755;SDS011;32506;52.826;-1.192;2024-03-02T06:39:01;4.95;;;3.08;;
46755;SDS011;32506;52.826;-1.192;2024-03-02T06:41:27;6.75;;;3.17;;
46755;SDS011;32506;52.826;-1.192;2024-03-02T06:43:53;7.28;;;3.03;;
46755;SDS011;32506;52.826;-1.192;2024-03-02T06:46:24;4.72;;;2.55;;
46755;SDS011;32506;52.826;-1.192;2024-03-02T06:48:50;5.93;;;3.03;;
46755;SDS011;32506;52.826;-1.192;2024-03-02T06:51:16;7.85;;;2.90;;
46755;SDS011;32506;52.826;-1.192;2024-03-02T06:53:41;6.18;;;2.70;;
46755;SDS011;32506;52.826;-1.192;2024-03-02T06:56:07;6.25;;;2.80;;
46755;SDS011;32506;52.826;-1.192;2024-03-02T06:58:33;4.18;;;2.60;;
46755;SDS011;32506;52.826;-1.192;2024-03-02T07:00:58;7.00;;;2.78;;
46755;SDS011;32506;52.826;-1.192;2024-03-02T07:03:25;4.22;;;2.50;;
46755;SDS011;32506;52.826;-1.192;2024-03-02T07:05:51;3.80;;;2.70;;
46755;SDS011;32506;52.826;-1.192;2024-03-02T07:08:16;5.35;;;2.38;;
46755;SDS011;32506;52.826;-1.192;2024-03-02T07:10:42;6.18;;;2.85;;
46755;SDS011;32506;52.826;-1.192;2024-03-02T07:13:08;4.25;;;2.50;;
46755;SDS011;32506;52.826;-1.192;2024-03-02T07:15:33;6.32;;;2.60;;
46755;SDS011;32506;52.826;-1.192;2024-03-02T07:18:17;4.97;;;2.97;;
46755;SDS011;32506;52.826;-1.192;2024-03-02T07:20:43;4.38;;;2.55;;
46755;SDS011;32506;52.826;-1.192;2024-03-02T07:23:09;5.53;;;2.47;;
46755;SDS011;32506;52.826;-1.192;2024-03-02T07:25:34;5.55;;;2.40;;
46755;SDS011;32506;52.826;-1.192;2024-03-02T07:28:00;3.78;;;2.20;;
46755;SDS011;32506;52.826;-1.192;2024-03-02T07:30:25;3.83;;;2.17;;
46755;SDS011;32506;52.826;-1.192;2024-03-02T07:32:51;4.50;;;2.30;;
46755;SDS011;32506;52.826;-1.192;2024-03-02T07:35:16;3.88;;;2.50;;
46755;SDS011;32506;52.826;-1.192;2024-03-02T07:37:43;3.60;;;2.42;;
46755;SDS011;32506;52.826;-1.192;2024-03-02T07:40:09;4.90;;;2.60;;
46755;SDS011;32506;52.826;-1.192;2024-03-02T07:42:38;3.22;;;2.00;;
46755;SDS011;32506;52.826;-1.192;2024-03-02T07:45:05;5.72;;;2.20;;
46755;SDS011;32506;52.826;-1.192;2024-03-02T07:47:31;3.88;;;2.22;;
46755;SDS011;32506;52.826;-1.192;2024-03-02T07:50:00;8.15;;;2.70;;
46755;SDS011;32506;52.826;-1.192;2024-03-02T07:52:26;5.53;;;1.98;;
46755;SDS011;32506;52.826;-1.192;2024-03-02T07:54:51;4.90;;;2.20;;
46755;SDS011;32506;52.826;-1.192;2024-03-02T07:57:17;8.30;;;2.25;;
46755;SDS011;32506;52.826;-1.192;2024-03-02T07:59:42;5.43;;;2.05;;
46755;SDS011;32506;52.826;-1.192;2024-03-02T08:02:08;8.98;;;1.98;;
46755;SDS011;32506;52.826;-1.192;2024-03-02T08:04:34;7.43;;;2.50;;
46755;SDS011;32506;52.826;-1.192;2024-03-02T08:06:59;7.95;;;2.55;;
46755;SDS011;32506;52.826;-1.192;2024-03-02T08:09:25;6.38;;;2.30;;
46755;SDS011;32506;52.826;-1.192;2024-03-02T08:11:51;7.75;;;2.40;;
46755;SDS011;32506;52.826;-1.192;2024-03-02T08:14:16;8.93;;;3.00;;
46755;SDS011;32506;52.826;-1.192;2024-03-02T08:16:42;10.88;;;2.75;;
46755;SDS011;32506;52.826;-1.192;2024-03-02T08:19:07;9.13;;;2.33;;
46755;SDS011;32506;52.826;-1.192;2024-03-02T08:21:34;6.60;;;2.40;;
46755;SDS011;32506;52.826;-1.192;2024-03-02T08:24:00;7.85;;;2.40;;
46755;SDS011;32506;52.826;-1.192;2024-03-02T08:26:27;9.77;;;2.55;;
46755;SDS011;32506;52.826;-1.192;2024-03-02T08:28:54;8.18;;;2.28;;
46755;SDS011;32506;52.826;-1.192;2024-03-02T08:31:20;9.52;;;2.55;;
46755;SDS011;32506;52.826;-1.192;2024-03-02T08:33:46;6.45;;;2.30;;
46755;SDS011;32506;52.826;-1.192;2024-03-02T08:36:11;7.32;;;2.58;;
46755;SDS011;32506;52.826;-1.192;2024-03-02T08:38:37;6.82;;;2.00;;
46755;SDS011;32506;52.826;-1.192;2024-03-02T08:41:03;8.27;;;2.15;;
46755;SDS011;32506;52.826;-1.192;2024-03-02T08:43:29;11.02;;;1.90;;
46755;SDS011;32506;52.826;-1.192;2024-03-02T08:45:54;7.20;;;1.95;;
46755;SDS011;32506;52.826;-1.192;2024-03-02T08:48:20;8.02;;;1.73;;
46755;SDS011;32506;52.826;-1.192;2024-03-02T08:50:48;7.55;;;1.85;;
46755;SDS011;32506;52.826;-1.192;2024-03-02T08:53:13;7.65;;;1.52;;
46755;SDS011;32506;52.826;-1.192;2024-03-02T08:55:43;8.80;;;1.83;;
46755;SDS011;32506;52.826;-1.192;2024-03-02T08:58:10;6.28;;;1.67;;
46755;SDS011;32506;52.826;-1.192;2024-03-02T09:00:36;8.13;;;1.67;;
46755;SDS011;32506;52.826;-1.192;2024-03-02T09:03:01;11.20;;;1.73;;
46755;SDS011;32506;52.826;-1.192;2024-03-02T09:05:27;8.95;;;1.75;;
46755;SDS011;32506;52.826;-1.192;2024-03-02T09:07:52;8.00;;;1.60;;
46755;SDS011;32506;52.826;-1.192;2024-03-02T09:10:18;7.90;;;1.75;;
46755;SDS011;32506;52.826;-1.192;2024-03-02T09:12:43;5.38;;;1.45;;
46755;SDS011;32506;52.826;-1.192;2024-03-02T09:15:09;11.48;;;1.92;;
46755;SDS011;32506;52.826;-1.192;2024-03-02T09:17:34;12.95;;;1.85;;
46755;SDS011;32506;52.826;-1.192;2024-03-02T09:20:00;6.22;;;2.17;;
46755;SDS011;32506;52.826;-1.192;2024-03-02T09:22:25;6.95;;;1.85;;
46755;SDS011;32506;52.826;-1.192;2024-03-02T09:24:51;8.73;;;2.08;;
46755;SDS011;32506;52.826;-1.192;2024-03-02T09:27:16;7.63;;;1.70;;
46755;SDS011;32506;52.826;-1.192;2024-03-02T09:29:41;10.55;;;1.75;;
46755;SDS011;32506;52.826;-1.192;2024-03-02T09:32:08;10.50;;;2.53;;
46755;SDS011;32506;52.826;-1.192;2024-03-02T09:34:37;9.63;;;2.05;;
46755;SDS011;32506;52.826;-1.192;2024-03-02T09:37:02;9.82;;;2.85;;
46755;SDS011;32506;52.826;-1.192;2024-03-02T09:39:29;6.90;;;1.77;;
46755;SDS011;32506;52.826;-1.192;2024-03-02T09:41:55;6.65;;;1.70;;
46755;SDS011;32506;52.826;-1.192;2024-03-02T09:44:20;5.85;;;1.48;;
46755;SDS011;32506;52.826;-1.192;2024-03-02T09:46:50;8.63;;;1.65;;
46755;SDS011;32506;52.826;-1.192;2024-03-02T09:49:16;8.60;;;2.20;;
46755;SDS011;32506;52.826;-1.192;2024-03-02T09:51:50;5.95;;;1.90;;
46755;SDS011;32506;52.826;-1.192;2024-03-02T09:54:16;11.07;;;2.40;;
46755;SDS011;32506;52.826;-1.192;2024-03-02T09:56:42;7.80;;;2.63;;
46755;SDS011;32506;52.826;-1.192;2024-03-02T09:59:08;10.43;;;2.20;;
46755;SDS011;32506;52.826;-1.192;2024-03-02T10:01:33;10.65;;;1.95;;
46755;SDS011;32506;52.826;-1.192;2024-03-02T10:03:59;11.63;;;2.40;;
46755;SDS011;32506;52.826;-1.192;2024-03-02T10:06:26;13.18;;;2.00;;
46755;SDS011;32506;52.826;-1.192;2024-03-02T10:08:53;8.57;;;1.70;;
46755;SDS011;32506;52.826;-1.192;2024-03-02T10:11:33;10.10;;;2.28;;
46755;SDS011;32506;52.826;-1.192;2024-03-02T10:14:08;7.97;;;1.73;;
46755;SDS011;32506;52.826;-1.192;2024-03-02T10:16:42;9.95;;;1.98;;
46755;SDS011;32506;52.826;-1.192;2024-03-02T10:19:24;6.90;;;1.70;;
46755;SDS011;32506;52.826;-1.192;2024-03-02T10:21:52;7.93;;;1.60;;
46755;SDS011;32506;52.826;-1.192;2024-03-02T10:24:19;7.45;;;1.63;;
46755;SDS011;32506;52.826;-1.192;2024-03-02T10:26:45;9.63;;;2.25;;
46755;SDS011;32506;52.826;-1.192;2024-03-02T10:29:11;10.35;;;2.20;;
46755;SDS011;32506;52.826;-1.192;2024-03-02T10:31:41;9.38;;;1.88;;
46755;SDS011;32506;52.826;-1.192;2024-03-02T10:34:08;12.65;;;2.05;;
46755;SDS011;32506;52.826;-1.192;2024-03-02T10:36:35;6.57;;;1.33;;
46755;SDS011;32506;52.826;-1.192;2024-03-02T10:39:02;5.43;;;1.50;;
46755;SDS011;32506;52.826;-1.192;2024-03-02T10:41:29;7.80;;;1.63;;
46755;SDS011;32506;52.826;-1.192;2024-03-02T10:43:58;8.48;;;1.33;;
46755;SDS011;32506;52.826;-1.192;2024-03-02T10:46:28;5.78;;;1.45;;
46755;SDS011;32506;52.826;-1.192;2024-03-02T10:48:54;5.78;;;1.77;;
46755;SDS011;32506;52.826;-1.192;2024-03-02T10:51:21;4.82;;;0.90;;
46755;SDS011;32506;52.826;-1.192;2024-03-02T10:53:46;5.55;;;1.08;;
46755;SDS011;32506;52.826;-1.192;2024-03-02T10:56:12;5.45;;;1.08;;
46755;SDS011;32506;52.826;-1.192;2024-03-02T10:58:48;4.72;;;0.57;;
46755;SDS011;32506;52.826;-1.192;2024-03-02T11:01:20;4.63;;;0.80;;
46755;SDS011;32506;52.826;-1.192;2024-03-02T11:03:46;4.30;;;0.65;;
46755;SDS011;32506;52.826;-1.192;2024-03-02T11:06:12;2.70;;;0.50;;
46755;SDS011;32506;52.826;-1.192;2024-03-02T11:08:38;3.92;;;0.70;;
46755;SDS011;32506;52.826;-1.192;2024-03-02T11:11:06;2.63;;;0.60;;
46755;SDS011;32506;52.826;-1.192;2024-03-02T11:13:37;4.70;;;0.65;;
46755;SDS011;32506;52.826;-1.192;2024-03-02T11:16:09;2.67;;;0.50;;
46755;SDS011;32506;52.826;-1.192;2024-03-02T11:18:41;1.52;;;0.40;;
46755;SDS011;32506;52.826;-1.192;2024-03-02T11:21:08;1.92;;;0.40;;
46755;SDS011;32506;52.826;-1.192;2024-03-02T11:23:34;1.73;;;0.60;;
46755;SDS011;32506;52.826;-1.192;2024-03-02T11:26:19;5.18;;;1.45;;
46755;SDS011;32506;52.826;-1.192;2024-03-02T11:28:45;3.10;;;0.43;;
46755;SDS011;32506;52.826;-1.192;2024-03-02T11:31:11;4.57;;;0.90;;
46755;SDS011;32506;52.826;-1.192;2024-03-02T11:33:37;2.38;;;0.35;;
46755;SDS011;32506;52.826;-1.192;2024-03-02T11:36:02;4.53;;;0.60;;
46755;SDS011;32506;52.826;-1.192;2024-03-02T11:38:29;2.20;;;0.40;;
46755;SDS011;32506;52.826;-1.192;2024-03-02T11:40:56;2.33;;;0.70;;
46755;SDS011;32506;52.826;-1.192;2024-03-02T11:43:22;1.88;;;0.30;;
46755;SDS011;32506;52.826;-1.192;2024-03-02T11:45:48;3.75;;;0.57;;
46755;SDS011;32506;52.826;-1.192;2024-03-02T11:48:21;2.53;;;0.65;;
46755;SDS011;32506;52.826;-1.192;2024-03-02T11:50:49;1.95;;;0.45;;
46755;SDS011;32506;52.826;-1.192;2024-03-02T11:53:15;4.38;;;0.65;;
46755;SDS011;32506;52.826;-1.192;2024-03-02T11:55:42;2.50;;;0.40;;
46755;SDS011;32506;52.826;-1.192;2024-03-02T11:58:14;1.40;;;0.40;;
46755;SDS011;32506;52.826;-1.192;2024-03-02T12:00:45;2.77;;;0.63;;
46755;SDS011;32506;52.826;-1.192;2024-03-02T12:03:12;1.02;;;0.30;;
46755;SDS011;32506;52.826;-1.192;2024-03-02T12:05:38;1.98;;;0.30;;
46755;SDS011;32506;52.826;-1.192;2024-03-02T12:08:07;1.30;;;0.30;;
46755;SDS011;32506;52.826;-1.192;2024-03-02T12:10:33;2.20;;;0.40;;
46755;SDS011;32506;52.826;-1.192;2024-03-02T12:13:00;0.45;;;0.28;;
46755;SDS011;32506;52.826;-1.192;2024-03-02T12:15:28;2.60;;;0.28;;
46755;SDS011;32506;52.826;-1.192;2024-03-02T12:17:58;1.80;;;0.50;;
46755;SDS011;32506;52.826;-1.192;2024-03-02T12:20:26;0.50;;;0.20;;
46755;SDS011;32506;52.826;-1.192;2024-03-02T12:22:54;1.15;;;0.30;;
46755;SDS011;32506;52.826;-1.192;2024-03-02T12:25:20;1.27;;;0.52;;
46755;SDS011;32506;52.826;-1.192;2024-03-02T12:27:48;1.55;;;0.30;;
46755;SDS011;32506;52.826;-1.192;2024-03-02T12:30:18;2.13;;;0.30;;
46755;SDS011;32506;52.826;-1.192;2024-03-02T12:32:44;0.95;;;0.32;;
46755;SDS011;32506;52.826;-1.192;2024-03-02T12:35:10;1.10;;;0.57;;
46755;SDS011;32506;52.826;-1.192;2024-03-02T12:37:49;2.03;;;0.50;;
46755;SDS011;32506;52.826;-1.192;2024-03-02T12:40:16;1.50;;;0.30;;
46755;SDS011;32506;52.826;-1.192;2024-03-02T12:42:45;1.10;;;0.40;;
46755;SDS011;32506;52.826;-1.192;2024-03-02T12:45:12;1.42;;;0.20;;
46755;SDS011;32506;52.826;-1.192;2024-03-02T12:47:39;1.60;;;0.40;;
46755;SDS011;32506;52.826;-1.192;2024-03-02T12:50:05;0.50;;;0.20;;
46755;SDS011;32506;52.826;-1.192;2024-03-02T12:52:31;1.15;;;0.20;;
46755;SDS011;32506;52.826;-1.192;2024-03-02T12:54:58;2.17;;;0.20;;
46755;SDS011;32506;52.826;-1.192;2024-03-02T12:57:25;1.58;;;0.40;;
46755;SDS011;32506;52.826;-1.192;2024-03-02T13:00:01;2.60;;;0.40;;
46755;SDS011;32506;52.826;-1.192;2024-03-02T13:02:40;0.88;;;0.20;;
46755;SDS011;32506;52.826;-1.192;2024-03-02T13:05:13;0.35;;;0.20;;
46755;SDS011;32506;52.826;-1.192;2024-03-02T13:07:38;1.13;;;0.30;;
46755;SDS011;32506;52.826;-1.192;2024-03-02T13:10:04;2.05;;;0.30;;
46755;SDS011;32506;52.826;-1.192;2024-03-02T13:12:32;1.65;;;0.63;;
46755;SDS011;32506;52.826;-1.192;2024-03-02T13:14:58;2.40;;;0.68;;
46755;SDS011;32506;52.826;-1.192;2024-03-02T13:17:24;3.08;;;0.43;;
46755;SDS011;32506;52.826;-1.192;2024-03-02T13:19:56;0.30;;;0.20;;
46755;SDS011;32506;52.826;-1.192;2024-03-02T13:22:23;1.92;;;0.30;;
46755;SDS011;32506;52.826;-1.192;2024-03-02T13:24:49;1.25;;;0.82;;
46755;SDS011;32506;52.826;-1.192;2024-03-02T13:27:15;1.67;;;0.30;;
46755;SDS011;32506;52.826;-1.192;2024-03-02T13:29:44;0.73;;;0.20;;
46755;SDS011;32506;52.826;-1.192;2024-03-02T13:32:09;1.02;;;0.30;;
46755;SDS011;32506;52.826;-1.192;2024-03-02T13:34:37;0.88;;;0.15;;
46755;SDS011;32506;52.826;-1.192;2024-03-02T13:37:03;1.42;;;0.30;;
46755;SDS011;32506;52.826;-1.192;2024-03-02T13:39:32;0.63;;;0.10;;
46755;SDS011;32506;52.826;-1.192;2024-03-02T13:42:00;2.15;;;0.40;;
46755;SDS011;32506;52.826;-1.192;2024-03-02T13:44:31;1.10;;;0.30;;
46755;SDS011;32506;52.826;-1.192;2024-03-02T13:47:05;2.63;;;0.30;;
46755;SDS011;32506;52.826;-1.192;2024-03-02T13:49:31;0.85;;;0.30;;
46755;SDS011;32506;52.826;-1.192;2024-03-02T13:52:01;0.50;;;0.20;;
46755;SDS011;32506;52.826;-1.192;2024-03-02T13:54:30;0.10;;;0.10;;
46755;SDS011;32506;52.826;-1.192;2024-03-02T13:56:56;0.77;;;0.22;;
46755;SDS011;32506;52.826;-1.192;2024-03-02T13:59:23;0.47;;;0.03;;
46755;SDS011;32506;52.826;-1.192;2024-03-02T14:01:49;1.55;;;0.40;;
46755;SDS011;32506;52.826;-1.192;2024-03-02T14:04:15;1.23;;;0.20;;
46755;SDS011;32506;52.826;-1.192;2024-03-02T14:06:40;1.20;;;0.30;;
46755;SDS011;32506;52.826;-1.192;2024-03-02T14:09:08;1.52;;;0.10;;
46755;SDS011;32506;52.826;-1.192;2024-03-02T14:11:34;0.57;;;0.17;;
46755;SDS011;32506;52.826;-1.192;2024-03-02T14:13:59;0.00;;;0.00;;
46755;SDS011;32506;52.826;-1.192;2024-03-02T14:16:25;0.20;;;0.10;;
46755;SDS011;32506;52.826;-1.192;2024-03-02T14:18:50;0.10;;;0.10;;
46755;SDS011;32506;52.826;-1.192;2024-03-02T14:21:16;0.20;;;0.10;;
46755;SDS011;32506;52.826;-1.192;2024-03-02T14:23:41;1.33;;;0.20;;
46755;SDS011;32506;52.826;-1.192;2024-03-02T14:26:07;0.35;;;0.10;;
46755;SDS011;32506;52.826;-1.192;2024-03-02T14:28:32;1.00;;;0.30;;
46755;SDS011;32506;52.826;-1.192;2024-03-02T14:30:58;0.52;;;0.30;;
46755;SDS011;32506;52.826;-1.192;2024-03-02T14:33:25;0.30;;;0.20;;
46755;SDS011;32506;52.826;-1.192;2024-03-02T14:35:51;1.25;;;0.40;;